Time;durP1;ratioP1;P1;durP2;ratioP2;P2;SDS_P1;SDS_P2;PMS_P1;PMS_P2;Temp;Humidity;BMP_temperature;BMP_pressure;BME280_temperature;BME280_humidity;BME280_pressure;Samples;Min_cycle;Max_cycle;Signal;HPM_P1;HPM_P2
2023/04/07 00:01:14;;;;;;;;;;;9.10;99.90;;;;;;5017582;28;19906;-66
2023/04/07 00:03:40;;;;;;;;;;;9.30;99.90;;;;;;4999821;28;19905;-67
2023/04/07 00:06:06;;;;;;;;;;;9.30;99.90;;;;;;5017651;28;19959;-66
2023/04/07 00:08:31;;;;;;;;;;;9.30;99.90;;;;;;5017251;28;20184;-67
2023/04/07 00:10:57;;;;;;;;;;;9.00;99.90;;;;;;5017368;28;19913;-66
2023/04/07 00:13:22;;;;;;;;;;;8.90;99.90;;;;;;5017604;28;19909;-66
2023/04/07 00:15:48;;;;;;;;;;;8.70;99.90;;;;;;5017667;28;19955;-67
2023/04/07 00:18:13;;;;;;;;;;;8.90;99.90;;;;;;5015965;28;19906;-66
2023/04/07 00:20:39;;;;;;;;;;;8.80;99.90;;;;;;4999572;28;19906;-67
2023/04/07 00:23:04;;;;;;;;;;;8.90;99.90;;;;;;4999146;28;20250;-67
2023/04/07 00:25:30;;;;;;;;;;;8.90;99.90;;;;;;5016716;28;19955;-66
2023/04/07 00:27:55;;;;;;;;;;;8.90;99.90;;;;;;5017017;28;19910;-66
2023/04/07 00:30:21;;;;;;;;;;;8.80;99.90;;;;;;5016932;28;19913;-67
2023/04/07 00:32:46;;;;;;;;;;;8.80;99.90;;;;;;5016333;28;19972;-66
2023/04/07 00:35:12;;;;;;;;;;;8.90;99.90;;;;;;5015483;28;19906;-67
2023/04/07 00:37:37;;;;;;;;;;;8.90;99.90;;;;;;5017087;28;19928;-67
2023/04/07 00:40:03;;;;;;;;;;;9.00;99.90;;;;;;5015288;28;19906;-67
2023/04/07 00:42:29;;;;;;;;;;;9.00;99.90;;;;;;5016924;28;19905;-67
2023/04/07 00:44:54;;;;;;;;;;;9.10;99.90;;;;;;5017120;28;19955;-66
2023/04/07 00:47:19;;;;;;;;;;;9.30;99.90;;;;;;5016691;28;20446;-66
2023/04/07 00:49:45;;;;;;;;;;;9.50;99.90;;;;;;5016497;28;20285;-66
2023/04/07 00:52:10;;;;;;;;;;;9.60;99.90;;;;;;5015083;28;20239;-66
2023/04/07 00:54:36;;;;;;;;;;;9.60;99.90;;;;;;5016049;28;19905;-66
2023/04/07 00:57:02;;;;;;;;;;;9.50;99.90;;;;;;5016398;28;19912;-67
2023/04/07 00:59:30;;;;;;;;;;;9.50;99.90;;;;;;4998781;28;19905;-66
2023/04/07 01:01:58;;;;;;;;;;;9.40;99.90;;;;;;5015269;28;20083;-66
2023/04/07 01:04:27;;;;;;;;;;;9.50;99.90;;;;;;5016590;28;19955;-66
2023/04/07 01:06:55;;;;;;;;;;;9.50;99.90;;;;;;5016026;28;19909;-66
2023/04/07 01:09:24;;;;;;;;;;;9.40;99.90;;;;;;4997680;28;19913;-67
2023/04/07 01:12:04;;;;;;;;;;;9.40;99.90;;;;;;5016258;28;19905;-66
2023/04/07 01:14:32;;;;;;;;;;;9.50;99.90;;;;;;5015583;28;19905;-67
2023/04/07 01:17:00;;;;;;;;;;;9.30;99.90;;;;;;5014659;28;19905;-66
2023/04/07 01:19:32;;;;;;;;;;;9.30;99.90;;;;;;5015871;28;19919;-67
2023/04/07 01:21:59;;;;;;;;;;;9.30;99.90;;;;;;5016116;28;20008;-67
2023/04/07 01:24:40;;;;;;;;;;;9.20;99.90;;;;;;5037500;23;20357;-70
2023/04/07 01:27:32;;;;;;;;;;;9.10;99.90;;;;;;5035221;28;19913;-70
2023/04/07 01:30:00;;;;;;;;;;;9.20;99.90;;;;;;5012435;28;20392;-70
2023/04/07 01:32:26;;;;;;;;;;;9.20;99.90;;;;;;5034279;28;20008;-70
2023/04/07 01:34:53;;;;;;;;;;;9.40;99.90;;;;;;5016107;28;20330;-70
2023/04/07 01:37:19;;;;;;;;;;;9.40;99.90;;;;;;5015439;28;20313;-71
2023/04/07 01:39:45;;;;;;;;;;;9.50;99.90;;;;;;5014948;28;19905;-70
2023/04/07 01:42:11;;;;;;;;;;;9.50;99.90;;;;;;5014729;28;19956;-70
2023/04/07 01:44:37;;;;;;;;;;;9.60;99.90;;;;;;5016340;28;19949;-70
2023/04/07 01:47:03;;;;;;;;;;;9.50;99.90;;;;;;5016618;28;19941;-70
2023/04/07 01:49:29;;;;;;;;;;;9.60;99.90;;;;;;5017170;28;20020;-70
2023/04/07 01:51:56;;;;;;;;;;;9.60;99.90;;;;;;5016622;28;19978;-70
2023/04/07 01:54:21;;;;;;;;;;;9.50;99.90;;;;;;5014978;28;19957;-69
2023/04/07 01:56:47;;;;;;;;;;;9.40;99.90;;;;;;5015011;28;19912;-69
2023/04/07 01:59:12;;;;;;;;;;;9.50;99.90;;;;;;5016114;28;19905;-68
2023/04/07 02:01:38;;;;;;;;;;;9.50;99.90;;;;;;5016009;28;19909;-71
2023/04/07 02:04:19;;;;;;;;;;;9.60;99.90;;;;;;5015518;28;19905;-70
2023/04/07 02:06:48;;;;;;;;;;;9.50;99.90;;;;;;5015264;28;19909;-69
2023/04/07 02:09:14;;;;;;;;;;;9.30;99.90;;;;;;5013766;28;19905;-70
2023/04/07 02:11:41;;;;;;;;;;;9.20;99.90;;;;;;5015205;28;19905;-70
2023/04/07 02:14:07;;;;;;;;;;;9.10;99.90;;;;;;5015708;28;20334;-70
2023/04/07 02:16:34;;;;;;;;;;;9.10;99.90;;;;;;5014235;28;19975;-70
2023/04/07 02:19:01;;;;;;;;;;;9.10;99.90;;;;;;5014294;28;20004;-70
2023/04/07 02:21:27;;;;;;;;;;;9.10;99.90;;;;;;5015255;28;20384;-68
2023/04/07 02:23:52;;;;;;;;;;;9.00;99.90;;;;;;5014435;28;19956;-69
2023/04/07 02:26:18;;;;;;;;;;;9.00;99.90;;;;;;5013623;28;19932;-69
2023/04/07 02:28:43;;;;;;;;;;;9.00;99.90;;;;;;5015013;28;19905;-70
2023/04/07 02:31:09;;;;;;;;;;;9.00;99.90;;;;;;5014760;28;19909;-70
2023/04/07 02:33:34;;;;;;;;;;;9.10;99.90;;;;;;5014938;28;19912;-69
2023/04/07 02:36:00;;;;;;;;;;;9.10;99.90;;;;;;4996817;28;19905;-69
2023/04/07 02:38:26;;;;;;;;;;;9.10;99.90;;;;;;5013303;28;20258;-70
2023/04/07 02:40:51;;;;;;;;;;;9.30;99.90;;;;;;5014765;28;19913;-70
2023/04/07 02:43:18;;;;;;;;;;;9.20;99.90;;;;;;5013161;28;19936;-69
2023/04/07 02:45:43;;;;;;;;;;;9.20;99.90;;;;;;5000038;28;19916;-69
2023/04/07 02:48:09;;;;;;;;;;;9.10;99.90;;;;;;5013418;28;19905;-69
2023/04/07 02:50:34;;;;;;;;;;;8.90;99.90;;;;;;5013520;28;19912;-69
2023/04/07 02:53:00;;;;;;;;;;;8.90;99.90;;;;;;5014537;28;19936;-70
2023/04/07 02:55:25;;;;;;;;;;;8.90;99.90;;;;;;5013424;28;19905;-69
2023/04/07 02:57:51;;;;;;;;;;;8.70;99.90;;;;;;5013140;28;19912;-69
2023/04/07 03:00:16;;;;;;;;;;;8.70;99.90;;;;;;5015049;28;19916;-70
2023/04/07 03:02:42;;;;;;;;;;;8.70;99.90;;;;;;5014266;28;20378;-70
2023/04/07 03:05:08;;;;;;;;;;;8.90;99.90;;;;;;5012940;28;19984;-71
2023/04/07 03:07:33;;;;;;;;;;;9.00;99.90;;;;;;5012947;28;19906;-70
2023/04/07 03:09:59;;;;;;;;;;;8.90;99.90;;;;;;5013956;28;19909;-70
2023/04/07 03:12:25;;;;;;;;;;;9.10;99.90;;;;;;5013075;28;19969;-69
2023/04/07 03:14:50;;;;;;;;;;;9.20;99.90;;;;;;5013787;28;20306;-69
2023/04/07 03:17:15;;;;;;;;;;;9.10;99.90;;;;;;5013692;28;19905;-70
2023/04/07 03:19:41;;;;;;;;;;;9.10;99.90;;;;;;5014479;28;20377;-70
2023/04/07 03:22:06;;;;;;;;;;;9.10;99.90;;;;;;5012962;28;20316;-69
2023/04/07 03:24:32;;;;;;;;;;;9.10;99.90;;;;;;5013851;28;20344;-70
2023/04/07 03:26:57;;;;;;;;;;;8.90;99.90;;;;;;5014349;28;19909;-71
2023/04/07 03:29:23;;;;;;;;;;;8.80;99.90;;;;;;5014180;28;20016;-70
2023/04/07 03:31:48;;;;;;;;;;;8.80;99.90;;;;;;5016142;28;19940;-70
2023/04/07 03:34:14;;;;;;;;;;;8.80;99.90;;;;;;5020727;28;20373;-70
2023/04/07 03:36:39;;;;;;;;;;;8.80;99.90;;;;;;5019505;28;19905;-69
2023/04/07 03:39:05;;;;;;;;;;;8.80;99.90;;;;;;5002833;28;20292;-70
2023/04/07 03:41:31;;;;;;;;;;;8.80;99.90;;;;;;5020786;28;20327;-70
2023/04/07 03:43:56;;;;;;;;;;;8.80;99.90;;;;;;5020341;28;19976;-70
2023/04/07 03:46:22;;;;;;;;;;;8.80;99.90;;;;;;5021085;28;19910;-70
2023/04/07 03:48:47;;;;;;;;;;;8.90;99.90;;;;;;5021866;28;19948;-70
2023/04/07 03:51:13;;;;;;;;;;;8.90;99.90;;;;;;5021099;28;19936;-69
2023/04/07 03:53:38;;;;;;;;;;;8.90;99.90;;;;;;5020725;28;19910;-70
2023/04/07 03:56:03;;;;;;;;;;;8.90;99.90;;;;;;5020456;28;19912;-70
2023/04/07 03:58:29;;;;;;;;;;;8.90;99.90;;;;;;5020593;28;19905;-70
2023/04/07 04:00:54;;;;;;;;;;;8.90;99.90;;;;;;5020834;28;19910;-70
2023/04/07 04:03:20;;;;;;;;;;;8.70;99.90;;;;;;5020754;28;19905;-70
2023/04/07 04:05:45;;;;;;;;;;;8.50;99.90;;;;;;5021540;28;19956;-70
2023/04/07 04:08:11;;;;;;;;;;;8.50;99.90;;;;;;5019030;28;19912;-70
2023/04/07 04:10:36;;;;;;;;;;;8.70;99.90;;;;;;5020669;28;19912;-70
2023/04/07 04:13:05;;;;;;;;;;;8.80;99.90;;;;;;5020459;28;19912;-70
2023/04/07 04:15:31;;;;;;;;;;;8.80;99.90;;;;;;5003003;28;19906;-70
2023/04/07 04:17:56;;;;;;;;;;;8.90;99.90;;;;;;5020411;28;19905;-70
2023/04/07 04:20:22;;;;;;;;;;;8.80;99.90;;;;;;5019421;28;19905;-70
2023/04/07 04:22:47;;;;;;;;;;;8.80;99.90;;;;;;5018752;28;19914;-70
2023/04/07 04:25:13;;;;;;;;;;;8.80;99.90;;;;;;5020139;28;20285;-70
2023/04/07 04:27:38;;;;;;;;;;;8.60;99.90;;;;;;5019972;28;19971;-70
2023/04/07 04:30:04;;;;;;;;;;;8.60;99.90;;;;;;5020400;28;20278;-70
2023/04/07 04:32:29;;;;;;;;;;;8.70;99.90;;;;;;5020641;28;20262;-70
2023/04/07 04:34:55;;;;;;;;;;;8.80;99.90;;;;;;5018527;28;19905;-70
2023/04/07 04:37:20;;;;;;;;;;;8.90;99.90;;;;;;5019184;28;20312;-70
2023/04/07 04:39:46;;;;;;;;;;;8.90;99.90;;;;;;5020320;28;19905;-69
2023/04/07 04:42:11;;;;;;;;;;;8.70;99.90;;;;;;5022807;28;19925;-69
2023/04/07 04:44:36;;;;;;;;;;;8.60;99.90;;;;;;5022981;28;19915;-69
2023/04/07 04:47:02;;;;;;;;;;;8.40;99.90;;;;;;5023905;28;19960;-69
2023/04/07 04:49:27;;;;;;;;;;;8.30;99.90;;;;;;5021936;28;19913;-69
2023/04/07 04:51:53;;;;;;;;;;;8.30;99.90;;;;;;5025338;28;19906;-69
2023/04/07 04:54:18;;;;;;;;;;;8.30;99.90;;;;;;5027511;28;20000;-69
2023/04/07 04:56:44;;;;;;;;;;;8.40;99.90;;;;;;5019402;28;19905;-69
2023/04/07 04:59:09;;;;;;;;;;;8.30;99.90;;;;;;5016538;28;19907;-70
2023/04/07 05:01:35;;;;;;;;;;;8.30;99.90;;;;;;5016621;28;20333;-73
2023/04/07 05:04:00;;;;;;;;;;;8.40;99.90;;;;;;5016633;28;20313;-70
2023/04/07 05:06:26;;;;;;;;;;;8.40;99.90;;;;;;5016263;28;20412;-71
2023/04/07 05:08:52;;;;;;;;;;;8.40;99.90;;;;;;5016801;28;20389;-70
2023/04/07 05:11:17;;;;;;;;;;;8.50;99.90;;;;;;5016507;28;19912;-71
2023/04/07 05:13:43;;;;;;;;;;;8.50;99.90;;;;;;5016369;28;20380;-71
2023/04/07 05:16:09;;;;;;;;;;;8.50;99.90;;;;;;4999024;28;19973;-71
2023/04/07 05:18:34;;;;;;;;;;;8.60;99.90;;;;;;5016458;28;19913;-70
2023/04/07 05:21:00;;;;;;;;;;;8.60;99.90;;;;;;5016083;28;20332;-71
2023/04/07 05:23:26;;;;;;;;;;;8.70;99.90;;;;;;5016217;28;19913;-71
2023/04/07 05:25:51;;;;;;;;;;;8.70;99.90;;;;;;5014865;28;19955;-71
2023/04/07 05:28:17;;;;;;;;;;;8.80;99.90;;;;;;5014766;28;19917;-71
2023/04/07 05:30:42;;;;;;;;;;;8.70;99.90;;;;;;5014971;28;20285;-71
2023/04/07 05:33:08;;;;;;;;;;;8.70;99.90;;;;;;5016223;28;20374;-70
2023/04/07 05:35:33;;;;;;;;;;;8.60;99.90;;;;;;5016117;28;19906;-72
2023/04/07 05:37:59;;;;;;;;;;;8.50;99.90;;;;;;5016045;28;20328;-71
2023/04/07 05:40:24;;;;;;;;;;;8.60;99.90;;;;;;5014099;28;19906;-70
2023/04/07 05:42:50;;;;;;;;;;;8.50;99.90;;;;;;4995041;28;20351;-71
2023/04/07 05:45:15;;;;;;;;;;;8.60;99.90;;;;;;5012714;28;20358;-71
2023/04/07 05:47:41;;;;;;;;;;;8.80;99.90;;;;;;4996709;28;20346;-71
2023/04/07 05:50:07;;;;;;;;;;;8.90;99.90;;;;;;5014197;28;19937;-70
2023/04/07 05:52:32;;;;;;;;;;;9.20;99.90;;;;;;5014704;28;19905;-70
2023/04/07 05:54:58;;;;;;;;;;;9.10;99.90;;;;;;4997266;28;20003;-69
2023/04/07 05:57:23;;;;;;;;;;;8.80;99.90;;;;;;5014955;28;19905;-70
2023/04/07 05:59:49;;;;;;;;;;;8.80;99.90;;;;;;5012202;28;19910;-71
2023/04/07 06:02:14;;;;;;;;;;;8.90;99.90;;;;;;5014730;28;19909;-70
2023/04/07 06:04:40;;;;;;;;;;;9.10;99.90;;;;;;5015071;28;19980;-71
2023/04/07 06:07:05;;;;;;;;;;;9.30;99.90;;;;;;5016110;28;20274;-70
2023/04/07 06:09:31;;;;;;;;;;;9.20;99.90;;;;;;5014760;28;19909;-70
2023/04/07 06:11:57;;;;;;;;;;;9.20;99.90;;;;;;5014388;28;19976;-70
2023/04/07 06:14:22;;;;;;;;;;;9.30;99.90;;;;;;5015118;28;20020;-70
2023/04/07 06:16:48;;;;;;;;;;;9.40;99.90;;;;;;5016016;28;19909;-72
2023/04/07 06:19:16;;;;;;;;;;;9.30;99.90;;;;;;4995530;28;19952;-71
2023/04/07 06:21:41;;;;;;;;;;;9.30;99.90;;;;;;4994476;28;20454;-72
2023/04/07 06:24:07;;;;;;;;;;;9.30;99.90;;;;;;4994876;28;19997;-71
2023/04/07 06:26:32;;;;;;;;;;;9.40;99.90;;;;;;4993485;28;20278;-70
2023/04/07 06:28:58;;;;;;;;;;;9.70;99.90;;;;;;4993686;28;19912;-71
2023/04/07 06:31:23;;;;;;;;;;;9.70;99.90;;;;;;4991895;28;19933;-70
2023/04/07 06:33:49;;;;;;;;;;;9.80;99.90;;;;;;4992310;28;20362;-69
2023/04/07 06:36:14;;;;;;;;;;;9.60;99.90;;;;;;4992970;28;19924;-70
2023/04/07 06:38:40;;;;;;;;;;;9.50;99.90;;;;;;4992160;28;19906;-70
2023/04/07 06:41:07;;;;;;;;;;;9.50;99.90;;;;;;5005548;28;19959;-70
2023/04/07 06:43:32;;;;;;;;;;;9.40;99.90;;;;;;5015325;28;19912;-70
2023/04/07 06:45:58;;;;;;;;;;;9.30;99.90;;;;;;5013604;28;19909;-70
2023/04/07 06:48:23;;;;;;;;;;;9.40;99.90;;;;;;5014545;28;19995;-70
2023/04/07 06:50:49;;;;;;;;;;;9.30;99.90;;;;;;5013233;28;20267;-70
2023/04/07 06:53:14;;;;;;;;;;;9.40;99.90;;;;;;5014276;28;20005;-72
2023/04/07 06:55:40;;;;;;;;;;;9.30;99.90;;;;;;5013051;28;19928;-71
2023/04/07 06:58:06;;;;;;;;;;;9.50;99.90;;;;;;5014645;28;19910;-71
2023/04/07 07:00:31;;;;;;;;;;;9.60;99.90;;;;;;5015341;28;20281;-72
2023/04/07 07:02:57;;;;;;;;;;;9.80;99.90;;;;;;5015201;28;20325;-70
2023/04/07 07:05:22;;;;;;;;;;;9.70;99.90;;;;;;5013970;28;20007;-72
2023/04/07 07:07:48;;;;;;;;;;;9.50;99.90;;;;;;5014679;28;19905;-72
2023/04/07 07:10:14;;;;;;;;;;;9.70;99.90;;;;;;5014922;28;20425;-72
2023/04/07 07:12:39;;;;;;;;;;;9.80;99.90;;;;;;5014686;28;20367;-73
2023/04/07 07:15:05;;;;;;;;;;;10.20;99.90;;;;;;5015636;28;19905;-72
2023/04/07 07:17:31;;;;;;;;;;;10.50;99.90;;;;;;5014773;28;19912;-72
2023/04/07 07:19:56;;;;;;;;;;;10.50;99.90;;;;;;5014080;28;19905;-71
2023/04/07 07:22:22;;;;;;;;;;;11.00;99.90;;;;;;5014107;28;19905;-71
2023/04/07 07:24:47;;;;;;;;;;;11.40;99.90;;;;;;4996727;28;19921;-71
2023/04/07 07:27:13;;;;;;;;;;;11.60;99.90;;;;;;5048701;23;19928;-67
2023/04/07 07:29:38;;;;;;;;;;;11.80;99.90;;;;;;5053567;28;19905;-67
2023/04/07 07:32:04;;;;;;;;;;;11.80;99.90;;;;;;5036398;28;19905;-68
2023/04/07 07:34:30;;;;;;;;;;;11.80;99.90;;;;;;5053516;28;19959;-68
2023/04/07 07:36:55;;;;;;;;;;;11.30;99.90;;;;;;5068780;28;19911;-68
2023/04/07 07:39:21;;;;;;;;;;;11.00;99.90;;;;;;5066510;28;19912;-67
2023/04/07 07:41:46;;;;;;;;;;;11.10;99.90;;;;;;5040594;28;19911;-65
2023/04/07 07:44:12;;;;;;;;;;;11.20;99.90;;;;;;5052144;28;19936;-66
2023/04/07 07:46:37;;;;;;;;;;;11.20;99.90;;;;;;5052242;28;19966;-67
2023/04/07 07:49:04;;;;;;;;;;;11.20;99.90;;;;;;5035308;28;20398;-68
2023/04/07 07:51:30;;;;;;;;;;;11.20;99.90;;;;;;5035278;28;20003;-69
2023/04/07 07:53:55;;;;;;;;;;;11.30;99.90;;;;;;5048250;28;19974;-68
2023/04/07 07:56:21;;;;;;;;;;;11.30;99.90;;;;;;5048322;28;19908;-69
2023/04/07 07:58:46;;;;;;;;;;;11.50;99.90;;;;;;5040838;28;19913;-68
2023/04/07 08:01:12;;;;;;;;;;;11.40;99.90;;;;;;5051664;28;19905;-68
2023/04/07 08:03:37;;;;;;;;;;;11.30;99.90;;;;;;5053660;28;19999;-69
2023/04/07 08:06:03;;;;;;;;;;;11.40;99.90;;;;;;5031960;28;19913;-68
2023/04/07 08:08:28;;;;;;;;;;;11.70;99.90;;;;;;5033261;28;19905;-68
2023/04/07 08:10:54;;;;;;;;;;;12.00;99.90;;;;;;5033978;28;19906;-68
2023/04/07 08:13:19;;;;;;;;;;;11.80;99.90;;;;;;5052890;28;20000;-68
2023/04/07 08:15:45;;;;;;;;;;;11.80;99.90;;;;;;5035442;28;19905;-69
2023/04/07 08:18:10;;;;;;;;;;;12.00;99.90;;;;;;5034675;28;19951;-68
2023/04/07 08:20:35;;;;;;;;;;;12.30;99.90;;;;;;5036924;28;19916;-68
2023/04/07 08:23:01;;;;;;;;;;;12.20;99.90;;;;;;5036970;28;19952;-71
2023/04/07 08:25:27;;;;;;;;;;;12.00;99.90;;;;;;5036871;28;19909;-71
2023/04/07 08:27:53;;;;;;;;;;;12.20;99.90;;;;;;5035582;28;20464;-69
2023/04/07 08:30:20;;;;;;;;;;;11.90;99.90;;;;;;5057048;28;19955;-70
2023/04/07 08:32:45;;;;;;;;;;;11.60;99.90;;;;;;5056908;28;19905;-70
2023/04/07 08:35:11;;;;;;;;;;;11.50;99.90;;;;;;5056532;28;19912;-71
2023/04/07 08:37:37;;;;;;;;;;;11.70;99.90;;;;;;5056999;28;19909;-70
2023/04/07 08:40:03;;;;;;;;;;;11.60;99.90;;;;;;5056444;28;19931;-71
2023/04/07 08:42:30;;;;;;;;;;;11.40;99.90;;;;;;5055036;28;19958;-71
2023/04/07 08:44:57;;;;;;;;;;;11.70;99.90;;;;;;5056428;28;19905;-70
2023/04/07 08:47:25;;;;;;;;;;;11.70;99.90;;;;;;5035299;28;19909;-68
2023/04/07 08:49:51;;;;;;;;;;;12.00;99.90;;;;;;5038362;28;19911;-72
2023/04/07 08:52:19;;;;;;;;;;;14.00;99.90;;;;;;5038983;28;19908;-69
2023/04/07 08:54:45;;;;;;;;;;;15.60;99.90;;;;;;5056311;28;20000;-69
2023/04/07 08:57:11;;;;;;;;;;;17.40;98.30;;;;;;5054107;28;20354;-70
2023/04/07 08:59:36;;;;;;;;;;;15.90;99.30;;;;;;5042805;28;20003;-70
2023/04/07 09:02:03;;;;;;;;;;;15.80;99.40;;;;;;5038388;28;19950;-69
2023/04/07 09:04:29;;;;;;;;;;;15.40;99.80;;;;;;5056576;28;19912;-69
2023/04/07 09:06:55;;;;;;;;;;;15.00;99.90;;;;;;5029639;28;19912;-68
2023/04/07 09:09:21;;;;;;;;;;;14.60;99.90;;;;;;5034783;28;19904;-70
2023/04/07 09:11:47;;;;;;;;;;;14.50;99.90;;;;;;5036425;28;19909;-68
2023/04/07 09:14:14;;;;;;;;;;;14.50;99.90;;;;;;5046200;28;19971;-69
2023/04/07 09:16:39;;;;;;;;;;;14.40;99.90;;;;;;5028317;28;19940;-68
2023/04/07 09:19:06;;;;;;;;;;;16.60;99.40;;;;;;5033805;28;19908;-68
2023/04/07 09:21:50;;;;;;;;;;;18.80;95.40;;;;;;5049422;28;19915;-67
2023/04/07 09:24:19;;;;;;;;;;;19.50;93.80;;;;;;5047345;28;19948;-68
2023/04/07 09:26:45;;;;;;;;;;;20.40;91.90;;;;;;5050396;28;19913;-67
2023/04/07 09:29:17;;;;;;;;;;;18.40;92.40;;;;;;5034330;28;20284;-68
2023/04/07 09:31:43;;;;;;;;;;;18.10;93.80;;;;;;5047411;28;19908;-68
2023/04/07 09:34:23;;;;;;;;;;;18.10;93.70;;;;;;5021340;28;19909;-68
2023/04/07 09:36:49;;;;;;;;;;;17.50;94.10;;;;;;5053219;28;19909;-69
2023/04/07 09:39:15;;;;;;;;;;;18.20;93.20;;;;;;5054817;28;19999;-68
2023/04/07 09:41:40;;;;;;;;;;;17.40;93.90;;;;;;5034355;28;19912;-67
2023/04/07 09:44:06;;;;;;;;;;;16.80;94.50;;;;;;5039421;28;19915;-68
2023/04/07 09:46:31;;;;;;;;;;;16.80;95.00;;;;;;5055581;28;19991;-68
2023/04/07 09:49:07;;;;;;;;;;;17.50;94.30;;;;;;5038083;28;19905;-67
2023/04/07 09:51:35;;;;;;;;;;;17.30;94.10;;;;;;5055134;28;19911;-70
2023/04/07 09:54:00;;;;;;;;;;;17.80;93.40;;;;;;5055174;28;19944;-66
2023/04/07 09:56:27;;;;;;;;;;;17.70;93.50;;;;;;5054863;28;19916;-69
2023/04/07 09:58:53;;;;;;;;;;;17.90;93.30;;;;;;5036814;28;19909;-68
2023/04/07 10:01:20;;;;;;;;;;;18.90;92.30;;;;;;5054852;28;20003;-67
2023/04/07 10:03:49;;;;;;;;;;;19.70;91.10;;;;;;5054746;28;19951;-69
2023/04/07 10:06:15;;;;;;;;;;;18.30;91.30;;;;;;5036671;28;19909;-70
2023/04/07 10:08:41;;;;;;;;;;;17.70;92.70;;;;;;5055012;28;20448;-71
2023/04/07 10:11:07;;;;;;;;;;;17.70;93.30;;;;;;5036039;28;20230;-68
2023/04/07 10:13:34;;;;;;;;;;;17.50;92.70;;;;;;5054389;28;19991;-68
2023/04/07 10:16:02;;;;;;;;;;;16.70;94.00;;;;;;5036876;28;20269;-68
2023/04/07 10:18:30;;;;;;;;;;;16.00;95.10;;;;;;5053458;28;19909;-67
2023/04/07 10:20:56;;;;;;;;;;;16.10;95.40;;;;;;5054628;28;19905;-67
2023/04/07 10:23:25;;;;;;;;;;;15.90;95.60;;;;;;5036212;28;19905;-69
2023/04/07 10:25:52;;;;;;;;;;;15.60;95.70;;;;;;5054516;28;19970;-70
2023/04/07 10:28:19;;;;;;;;;;;14.80;97.40;;;;;;5036768;28;20376;-68
2023/04/07 10:30:46;;;;;;;;;;;14.90;98.40;;;;;;5054896;28;20318;-70
2023/04/07 10:33:12;;;;;;;;;;;15.10;97.60;;;;;;5053450;28;20000;-68
2023/04/07 10:35:56;;;;;;;;;;;15.10;98.40;;;;;;5054829;28;19951;-68
2023/04/07 10:38:21;;;;;;;;;;;14.80;98.20;;;;;;5054486;28;19912;-67
2023/04/07 10:40:46;;;;;;;;;;;14.50;98.80;;;;;;5054304;28;19904;-69
2023/04/07 10:43:32;;;;;;;;;;;14.50;98.80;;;;;;5054057;28;19954;-69
2023/04/07 10:45:58;;;;;;;;;;;14.30;98.70;;;;;;5054465;28;19909;-69
2023/04/07 10:48:24;;;;;;;;;;;14.10;99.60;;;;;;5054397;28;19912;-69
2023/04/07 10:51:06;;;;;;;;;;;13.90;99.10;;;;;;5054858;28;19941;-68
2023/04/07 10:53:32;;;;;;;;;;;13.90;99.60;;;;;;5054971;28;19905;-68
2023/04/07 10:55:58;;;;;;;;;;;14.00;99.60;;;;;;5054785;28;19908;-68
2023/04/07 10:58:23;;;;;;;;;;;14.30;98.50;;;;;;5054169;28;20438;-69
2023/04/07 11:01:17;;;;;;;;;;;14.30;97.50;;;;;;5054430;28;19992;-68
2023/04/07 11:03:53;;;;;;;;;;;14.90;97.30;;;;;;5054275;28;19909;-68
2023/04/07 11:06:18;;;;;;;;;;;17.90;93.50;;;;;;5054324;28;19908;-69
2023/04/07 11:08:45;;;;;;;;;;;20.60;87.20;;;;;;5049548;28;19924;-66
2023/04/07 11:11:12;;;;;;;;;;;19.10;82.30;;;;;;5034672;28;19908;-68
2023/04/07 11:13:41;;;;;;;;;;;19.90;82.40;;;;;;5053508;28;19908;-67
2023/04/07 11:16:07;;;;;;;;;;;19.50;80.60;;;;;;5035714;28;19909;-67
2023/04/07 11:18:33;;;;;;;;;;;18.60;82.20;;;;;;5054176;28;20357;-68
2023/04/07 11:20:59;;;;;;;;;;;17.80;85.70;;;;;;5053892;28;19912;-67
2023/04/07 11:23:26;;;;;;;;;;;17.40;87.20;;;;;;5054355;28;19904;-68
2023/04/07 11:25:52;;;;;;;;;;;16.80;88.60;;;;;;5036500;28;19919;-69
2023/04/07 11:28:18;;;;;;;;;;;15.90;88.60;;;;;;5054054;28;19951;-67
2023/04/07 11:30:51;;;;;;;;;;;15.10;90.00;;;;;;5035995;28;20349;-68
2023/04/07 11:33:21;;;;;;;;;;;15.00;90.80;;;;;;5054177;28;20296;-69
2023/04/07 11:35:54;;;;;;;;;;;15.00;92.50;;;;;;5054018;28;19915;-68
2023/04/07 11:38:20;;;;;;;;;;;15.00;93.40;;;;;;5053869;28;19905;-67
2023/04/07 11:40:46;;;;;;;;;;;14.90;92.60;;;;;;5053979;28;19911;-68
2023/04/07 11:43:29;;;;;;;;;;;15.10;93.30;;;;;;5053202;28;19905;-68
2023/04/07 11:46:07;;;;;;;;;;;15.40;92.80;;;;;;5035897;28;19908;-68
2023/04/07 11:48:33;;;;;;;;;;;15.60;92.30;;;;;;5053624;28;20380;-68
2023/04/07 11:50:59;;;;;;;;;;;15.80;91.80;;;;;;5053511;28;19940;-69
2023/04/07 11:53:29;;;;;;;;;;;15.90;90.60;;;;;;5037143;28;20345;-67
2023/04/07 11:56:00;;;;;;;;;;;16.10;89.70;;;;;;5057701;28;20330;-68
2023/04/07 11:58:26;;;;;;;;;;;16.30;90.20;;;;;;5057348;28;19996;-69
2023/04/07 12:00:52;;;;;;;;;;;16.30;89.90;;;;;;5057975;28;20360;-67
2023/04/07 12:03:17;;;;;;;;;;;16.00;91.20;;;;;;5039378;28;19905;-68
2023/04/07 12:05:43;;;;;;;;;;;15.50;91.80;;;;;;5057772;28;20403;-69
2023/04/07 12:08:09;;;;;;;;;;;15.80;91.60;;;;;;5057219;28;19954;-69
2023/04/07 12:10:35;;;;;;;;;;;15.70;90.90;;;;;;5057591;28;19905;-69
2023/04/07 12:13:01;;;;;;;;;;;16.00;90.10;;;;;;5057952;28;20369;-69
2023/04/07 12:15:26;;;;;;;;;;;16.20;91.00;;;;;;5039804;28;20292;-68
2023/04/07 12:17:52;;;;;;;;;;;16.00;91.10;;;;;;5057594;28;19911;-68
2023/04/07 12:20:17;;;;;;;;;;;15.50;91.40;;;;;;5039652;28;19904;-69
2023/04/07 12:22:43;;;;;;;;;;;15.50;91.70;;;;;;5039425;28;19976;-68
2023/04/07 12:25:08;;;;;;;;;;;15.10;91.50;;;;;;5039011;28;19909;-67
2023/04/07 12:27:34;;;;;;;;;;;15.10;91.60;;;;;;5055997;28;19912;-67
2023/04/07 12:30:00;;;;;;;;;;;15.50;91.40;;;;;;5057145;28;20322;-69
2023/04/07 12:32:25;;;;;;;;;;;15.80;90.60;;;;;;5059672;28;19927;-68
2023/04/07 12:34:51;;;;;;;;;;;16.00;91.70;;;;;;5059895;28;19909;-69
2023/04/07 12:37:16;;;;;;;;;;;15.30;93.20;;;;;;5059576;28;19938;-68
2023/04/07 12:39:42;;;;;;;;;;;15.50;93.90;;;;;;5057077;28;19939;-68
2023/04/07 12:42:10;;;;;;;;;;;15.40;94.70;;;;;;5039037;28;20379;-68
2023/04/07 12:44:36;;;;;;;;;;;15.20;96.70;;;;;;5056678;28;19905;-68
2023/04/07 12:47:02;;;;;;;;;;;14.80;99.10;;;;;;5056903;28;20446;-68
2023/04/07 12:49:27;;;;;;;;;;;14.40;99.90;;;;;;5056925;28;19905;-70
2023/04/07 12:51:52;;;;;;;;;;;14.00;99.90;;;;;;5057222;28;19905;-69
2023/04/07 12:54:18;;;;;;;;;;;13.80;99.90;;;;;;5056315;28;20380;-69
2023/04/07 12:56:43;;;;;;;;;;;13.70;99.90;;;;;;5038319;28;19952;-68
2023/04/07 12:59:09;;;;;;;;;;;13.60;99.90;;;;;;5056047;28;19905;-68
2023/04/07 13:01:35;;;;;;;;;;;13.50;99.90;;;;;;5038514;28;19905;-69
2023/04/07 13:04:01;;;;;;;;;;;13.10;99.90;;;;;;5055999;28;19924;-69
2023/04/07 13:06:27;;;;;;;;;;;13.10;99.90;;;;;;5056440;28;19919;-68
2023/04/07 13:08:52;;;;;;;;;;;13.10;99.90;;;;;;5056042;28;19911;-68
2023/04/07 13:11:18;;;;;;;;;;;13.10;99.90;;;;;;5038211;28;19905;-69
2023/04/07 13:13:43;;;;;;;;;;;13.00;99.90;;;;;;5055934;28;20345;-68
2023/04/07 13:16:09;;;;;;;;;;;12.90;99.90;;;;;;5057077;28;19950;-69
2023/04/07 13:18:35;;;;;;;;;;;12.70;99.90;;;;;;5038794;28;20046;-69
2023/04/07 13:21:01;;;;;;;;;;;12.90;99.90;;;;;;5056625;28;19906;-69
2023/04/07 13:23:26;;;;;;;;;;;13.20;99.90;;;;;;5056334;28;20000;-68
2023/04/07 13:25:55;;;;;;;;;;;13.30;99.90;;;;;;5056242;28;20011;-68
2023/04/07 13:28:20;;;;;;;;;;;13.30;99.90;;;;;;5055693;28;19904;-68
2023/04/07 13:30:46;;;;;;;;;;;13.40;99.90;;;;;;5055933;28;20381;-69
2023/04/07 13:33:11;;;;;;;;;;;13.60;99.90;;;;;;5037449;28;20269;-69
2023/04/07 13:35:37;;;;;;;;;;;13.70;99.90;;;;;;5055788;28;19905;-68
2023/04/07 13:38:03;;;;;;;;;;;13.60;99.90;;;;;;5055405;28;19928;-68
2023/04/07 13:40:28;;;;;;;;;;;13.70;99.90;;;;;;5055381;28;19904;-68
2023/04/07 13:42:55;;;;;;;;;;;13.70;99.90;;;;;;5055006;28;19905;-68
2023/04/07 13:45:20;;;;;;;;;;;13.70;99.90;;;;;;5055404;28;20067;-68
2023/04/07 13:47:46;;;;;;;;;;;13.80;99.90;;;;;;5055346;28;19966;-69
2023/04/07 13:50:11;;;;;;;;;;;13.80;99.90;;;;;;5055316;28;19905;-68
2023/04/07 13:52:37;;;;;;;;;;;13.90;99.90;;;;;;5055059;28;19912;-69
2023/04/07 13:55:04;;;;;;;;;;;13.80;99.90;;;;;;5037672;28;19905;-69
2023/04/07 13:57:30;;;;;;;;;;;14.00;99.90;;;;;;5054922;28;19905;-70
2023/04/07 13:59:55;;;;;;;;;;;14.10;99.90;;;;;;5054885;28;19999;-69
2023/04/07 14:02:22;;;;;;;;;;;14.10;99.90;;;;;;5055083;28;19904;-69
2023/04/07 14:04:48;;;;;;;;;;;14.10;99.90;;;;;;5055144;28;19908;-69
2023/04/07 14:07:13;;;;;;;;;;;14.10;99.90;;;;;;5054278;28;20331;-67
2023/04/07 14:09:39;;;;;;;;;;;14.00;99.90;;;;;;5035176;28;19904;-68
2023/04/07 14:12:05;;;;;;;;;;;13.90;99.90;;;;;;5052938;28;19904;-67
2023/04/07 14:14:30;;;;;;;;;;;13.40;99.90;;;;;;5043853;28;19909;-67
2023/04/07 14:16:56;;;;;;;;;;;13.20;99.90;;;;;;5051954;28;20361;-69
2023/04/07 14:19:23;;;;;;;;;;;13.30;99.90;;;;;;5034299;28;19907;-68